Time;durP1;ratioP1;P1;durP2;ratioP2;P2;SDS_P1;SDS_P2;PMS_P1;PMS_P2;Temp;Humidity;BMP_temperature;BMP_pressure;BME280_temperature;BME280_humidity;BME280_pressure;Samples;Min_cycle;Max_cycle;Signal;HPM_P1;HPM_P2
2021/04/15 00:00:48;;;;;;;13.50;9.17;;;-1.80;99.90;;;;;;2084788;28;20195;-65
2021/04/15 00:01:54;;;;;;;12.18;8.73;;;-1.80;99.90;;;;;;2072518;28;20178;-65
2021/04/15 00:02:59;;;;;;;10.65;8.75;;;-1.80;99.90;;;;;;2072609;28;20637;-65
2021/04/15 00:04:00;;;;;;;13.50;9.48;;;-1.90;99.90;;;;;;2072876;28;20633;-66
2021/04/15 00:05:01;;;;;;;11.60;9.33;;;-1.80;99.90;;;;;;2072684;28;20190;-65
2021/04/15 00:06:13;;;;;;;14.20;9.63;;;-1.90;99.90;;;;;;2072606;28;20215;-65
2021/04/15 00:07:14;;;;;;;13.88;9.65;;;-1.90;99.90;;;;;;2072688;28;20174;-65
2021/04/15 00:08:18;;;;;;;12.57;9.20;;;-1.90;99.90;;;;;;2072634;28;20178;-65
2021/04/15 00:09:22;;;;;;;12.73;8.85;;;-1.90;99.90;;;;;;2072567;28;20178;-65
2021/04/15 00:10:46;;;;;;;13.60;9.23;;;-1.90;99.90;;;;;;2072799;28;20186;-65
2021/04/15 00:11:47;;;;;;;13.35;9.20;;;-1.90;99.90;;;;;;2072329;28;20621;-65
2021/04/15 00:12:48;;;;;;;11.88;8.60;;;-1.90;99.90;;;;;;2072691;28;20617;-65
2021/04/15 00:13:53;;;;;;;16.47;9.83;;;-1.90;99.90;;;;;;2072520;28;20232;-65
2021/04/15 00:14:54;;;;;;;14.52;10.32;;;-1.90;99.90;;;;;;2072717;28;20641;-65
2021/04/15 00:15:56;;;;;;;12.57;9.17;;;-2.00;99.90;;;;;;2072632;28;20212;-65
2021/04/15 00:16:56;;;;;;;16.40;11.20;;;-2.00;99.90;;;;;;2063825;28;20191;-65
2021/04/15 00:17:57;;;;;;;14.60;10.10;;;-2.00;99.90;;;;;;2063905;28;20186;-65
2021/04/15 00:18:59;;;;;;;13.33;10.13;;;-2.00;99.90;;;;;;2072604;28;20189;-65
2021/04/15 00:20:00;;;;;;;12.52;9.70;;;-2.10;99.90;;;;;;2072573;28;20178;-65
2021/04/15 00:21:00;;;;;;;14.37;10.70;;;-2.10;99.90;;;;;;2072700;28;20723;-65
2021/04/15 00:22:01;;;;;;;14.57;10.83;;;-2.10;99.90;;;;;;2072371;28;20245;-65
2021/04/15 00:23:02;;;;;;;13.03;10.40;;;-2.10;99.90;;;;;;2063999;28;20325;-65
2021/04/15 00:24:04;;;;;;;14.52;10.57;;;-2.00;99.90;;;;;;2063876;28;20179;-65
2021/04/15 00:25:05;;;;;;;16.92;11.25;;;-2.00;99.90;;;;;;2072756;28;20193;-65
2021/04/15 00:26:09;;;;;;;16.15;11.15;;;-2.00;99.90;;;;;;2072414;28;20332;-65
2021/04/15 00:27:10;;;;;;;13.57;10.35;;;-2.00;99.90;;;;;;2072720;28;20189;-66
2021/04/15 00:28:12;;;;;;;13.27;10.53;;;-2.00;99.90;;;;;;2072647;28;20186;-65
2021/04/15 00:29:12;;;;;;;14.57;10.98;;;-2.00;99.90;;;;;;2072652;28;20185;-65
2021/04/15 00:30:14;;;;;;;16.13;10.57;;;-1.90;99.90;;;;;;2072478;28;20178;-65
2021/04/15 00:31:15;;;;;;;15.10;10.07;;;-1.90;99.90;;;;;;2072321;28;20608;-65
2021/04/15 00:32:15;;;;;;;15.10;10.43;;;-1.90;99.90;;;;;;2072533;28;20224;-65
2021/04/15 00:33:17;;;;;;;12.37;9.70;;;-1.80;99.90;;;;;;2072655;28;20182;-65
2021/04/15 00:34:18;;;;;;;13.57;10.48;;;-1.80;99.90;;;;;;2072564;28;20210;-65
2021/04/15 00:35:20;;;;;;;15.83;11.63;;;-1.80;99.90;;;;;;2072577;28;20182;-65
2021/04/15 00:36:21;;;;;;;15.73;10.55;;;-1.70;99.90;;;;;;2063808;28;20501;-65
2021/04/15 00:37:22;;;;;;;13.05;10.32;;;-1.70;99.90;;;;;;2063907;28;20186;-67
2021/04/15 00:38:24;;;;;;;14.43;10.70;;;-1.70;99.90;;;;;;2072531;28;20261;-65
2021/04/15 00:39:25;;;;;;;15.18;10.55;;;-1.70;99.90;;;;;;2072608;28;20245;-65
2021/04/15 00:40:27;;;;;;;12.47;9.47;;;-1.70;99.90;;;;;;2072535;28;20353;-65
2021/04/15 00:41:28;;;;;;;14.63;10.93;;;-1.70;99.90;;;;;;2072402;28;20190;-65
2021/04/15 00:42:29;;;;;;;12.73;10.27;;;-1.60;99.90;;;;;;2072500;28;20208;-66
2021/04/15 00:43:36;;;;;;;13.07;8.93;;;-1.60;99.90;;;;;;2072625;28;20178;-66
2021/04/15 00:44:37;;;;;;;13.85;10.35;;;-1.60;99.90;;;;;;2072508;28;20545;-66
2021/04/15 00:45:42;;;;;;;13.00;9.00;;;-1.60;99.90;;;;;;2072501;28;20279;-66
2021/04/15 00:46:52;;;;;;;10.60;8.73;;;-1.60;99.90;;;;;;2072475;28;20171;-66
2021/04/15 00:48:21;;;;;;;11.68;8.65;;;-1.60;99.90;;;;;;2063952;28;20174;-66
2021/04/15 00:49:45;;;;;;;11.30;8.73;;;-1.60;99.90;;;;;;2059542;28;20253;-65
2021/04/15 00:51:04;;;;;;;11.38;8.68;;;-1.60;99.90;;;;;;2058776;28;20163;-65
2021/04/15 00:52:09;;;;;;;10.95;8.50;;;-1.50;99.90;;;;;;2066123;28;20213;-65
2021/04/15 00:53:20;;;;;;;12.15;9.35;;;-1.50;99.90;;;;;;2063769;28;20651;-65
2021/04/15 00:54:38;;;;;;;11.63;7.93;;;-1.50;99.90;;;;;;2057107;28;20167;-65
2021/04/15 00:55:39;;;;;;;12.90;9.40;;;-1.50;99.90;;;;;;2066853;28;20185;-65
2021/04/15 00:56:40;;;;;;;13.57;9.30;;;-1.40;99.90;;;;;;2063744;28;20650;-65
2021/04/15 00:57:41;;;;;;;14.20;9.73;;;-1.40;99.90;;;;;;2055867;28;20550;-65
2021/04/15 00:58:44;;;;;;;11.90;9.30;;;-1.40;99.90;;;;;;2063942;28;20280;-65
2021/04/15 00:59:45;;;;;;;13.50;9.35;;;-1.40;99.90;;;;;;2063741;28;20262;-65
2021/04/15 01:00:46;;;;;;;13.20;10.23;;;-1.40;99.90;;;;;;2064510;28;20649;-66
2021/04/15 01:01:47;;;;;;;13.33;8.83;;;-1.40;99.90;;;;;;2073752;28;20273;-65
2021/04/15 01:02:48;;;;;;;13.73;10.40;;;-1.40;99.90;;;;;;2073968;28;20213;-65
2021/04/15 01:03:49;;;;;;;11.40;8.93;;;-1.40;99.90;;;;;;2073948;28;20431;-65
2021/04/15 01:04:56;;;;;;;11.90;9.67;;;-1.40;99.90;;;;;;2074077;28;20206;-65
2021/04/15 01:05:57;;;;;;;12.63;9.70;;;-1.40;99.90;;;;;;2073891;28;20716;-65
2021/04/15 01:06:57;;;;;;;12.07;9.47;;;-1.40;99.90;;;;;;2074106;28;20197;-65
2021/04/15 01:07:59;;;;;;;14.10;10.70;;;-1.40;99.90;;;;;;2073857;28;20250;-65
2021/04/15 01:09:02;;;;;;;12.80;10.15;;;-1.40;99.90;;;;;;2074100;28;20200;-65
2021/04/15 01:10:04;;;;;;;12.82;10.25;;;-1.40;99.90;;;;;;2065294;28;20190;-66
2021/04/15 01:11:25;;;;;;;15.13;10.80;;;-1.40;99.90;;;;;;2065317;28;20183;-65
2021/04/15 01:13:03;;;;;;;13.25;9.85;;;-1.50;99.90;;;;;;2068145;28;20209;-65
2021/04/15 01:14:43;;;;;;;10.75;8.68;;;-1.50;99.90;;;;;;2065243;28;20184;-65
2021/04/15 01:16:21;;;;;;;13.15;8.98;;;-1.60;99.90;;;;;;2070805;28;20196;-65
2021/04/15 01:17:32;;;;;;;12.60;9.85;;;-1.60;99.90;;;;;;2065366;28;20550;-65
2021/04/15 01:19:42;;;;;;;12.27;9.73;;;-1.60;99.90;;;;;;2058390;28;20267;-66
2021/04/15 01:20:54;;;;;;;13.38;8.95;;;-1.70;99.90;;;;;;2048771;29;20214;-65
2021/04/15 01:22:37;;;;;;;12.35;9.52;;;-1.70;99.90;;;;;;2048599;29;20200;-65
2021/04/15 01:23:49;;;;;;;12.15;9.27;;;-1.70;99.90;;;;;;2073433;28;20560;-65
2021/04/15 01:25:18;;;;;;;14.50;9.80;;;-1.70;99.90;;;;;;2073790;28;20664;-65
2021/04/15 01:26:41;;;;;;;15.98;9.88;;;-1.70;99.90;;;;;;2066283;28;20218;-65
2021/04/15 01:27:48;;;;;;;14.93;9.77;;;-1.70;99.90;;;;;;2073895;28;20177;-65
2021/04/15 01:29:28;;;;;;;16.10;10.20;;;-1.80;99.90;;;;;;2065074;28;20835;-65
2021/04/15 01:30:40;;;;;;;14.55;10.52;;;-1.70;99.90;;;;;;2062110;28;20201;-64
2021/04/15 01:31:52;;;;;;;13.93;10.60;;;-1.70;99.90;;;;;;2058354;28;20167;-65
2021/04/15 01:33:26;;;;;;;15.25;10.68;;;-1.70;99.90;;;;;;2066748;28;20190;-65
2021/04/15 01:34:55;;;;;;;14.88;10.07;;;-1.70;99.90;;;;;;2065135;28;20175;-64
2021/04/15 01:36:31;;;;;;;17.35;11.27;;;-1.70;99.90;;;;;;2060889;28;20228;-65
2021/04/15 01:37:53;;;;;;;14.15;10.00;;;-1.60;99.90;;;;;;2045305;28;20656;-65
2021/04/15 01:39:12;;;;;;;13.00;9.85;;;-1.60;99.90;;;;;;2073660;28;20185;-65
2021/04/15 01:40:35;;;;;;;14.00;9.95;;;-1.50;99.90;;;;;;2065114;28;20174;-65
2021/04/15 01:41:44;;;;;;;14.07;10.45;;;-1.50;99.90;;;;;;2068197;28;20178;-65
2021/04/15 01:42:57;;;;;;;12.43;10.23;;;-1.50;99.90;;;;;;2065067;28;20191;-65
2021/04/15 01:44:07;;;;;;;15.05;11.07;;;-1.50;99.90;;;;;;2066886;28;20223;-64
2021/04/15 01:45:11;;;;;;;13.07;10.40;;;-1.50;99.90;;;;;;2073524;28;20261;-65
2021/04/15 01:46:12;;;;;;;16.00;11.45;;;-1.50;99.90;;;;;;2064885;28;20249;-64
2021/04/15 01:47:20;;;;;;;15.23;10.75;;;-1.40;99.90;;;;;;2064897;28;20188;-65
2021/04/15 01:48:38;;;;;;;16.00;11.55;;;-1.40;99.90;;;;;;2065059;28;20168;-65
2021/04/15 01:49:43;;;;;;;15.73;10.57;;;-1.40;99.90;;;;;;2059117;28;20651;-65
2021/04/15 01:50:56;;;;;;;16.05;10.52;;;-1.40;99.90;;;;;;2057465;28;20218;-65
2021/04/15 01:51:58;;;;;;;16.17;11.43;;;-1.40;99.90;;;;;;2058165;28;20227;-64
2021/04/15 01:53:10;;;;;;;18.75;11.10;;;-1.40;99.90;;;;;;2057153;28;20704;-65
2021/04/15 01:54:34;;;;;;;15.43;10.70;;;-1.40;99.90;;;;;;2058204;28;20179;-65
2021/04/15 01:55:51;;;;;;;14.40;10.60;;;-1.40;99.90;;;;;;2059877;28;20168;-65
2021/04/15 01:57:13;;;;;;;14.73;11.43;;;-1.30;99.90;;;;;;2059040;28;20253;-65
2021/04/15 01:58:29;;;;;;;16.20;10.35;;;-1.30;99.90;;;;;;2068478;28;20261;-65
2021/04/15 01:59:42;;;;;;;15.93;11.77;;;-1.30;99.90;;;;;;2064765;28;20170;-64
2021/04/15 02:00:49;;;;;;;14.07;10.63;;;-1.30;99.90;;;;;;2066626;28;20167;-64
2021/04/15 02:01:54;;;;;;;13.63;10.73;;;-1.30;99.90;;;;;;2064449;28;20186;-65
2021/04/15 02:03:03;;;;;;;16.73;11.02;;;-1.20;99.90;;;;;;2065513;28;20174;-65
2021/04/15 02:04:12;;;;;;;13.80;10.35;;;-1.20;99.90;;;;;;2064858;28;20619;-65
2021/04/15 02:05:25;;;;;;;14.32;10.60;;;-1.20;99.90;;;;;;2066112;28;20679;-65
2021/04/15 02:06:30;;;;;;;14.02;10.48;;;-1.20;99.90;;;;;;2064729;28;20196;-65
2021/04/15 02:07:37;;;;;;;16.90;10.85;;;-1.10;99.90;;;;;;2064750;28;20277;-65
2021/04/15 02:08:46;;;;;;;17.23;11.18;;;-1.10;99.90;;;;;;2065720;28;20167;-65
2021/04/15 02:09:49;;;;;;;15.30;11.10;;;-1.10;99.90;;;;;;2064853;28;20226;-65
2021/04/15 02:11:06;;;;;;;15.40;10.77;;;-1.10;99.90;;;;;;2064720;28;20184;-65
2021/04/15 02:12:22;;;;;;;12.38;10.13;;;-1.10;99.90;;;;;;2066237;28;20229;-65
2021/04/15 02:13:26;;;;;;;15.25;10.65;;;-1.00;99.90;;;;;;2064786;28;20729;-65
2021/04/15 02:14:34;;;;;;;15.80;11.35;;;-1.00;99.90;;;;;;2065140;28;20673;-65
2021/04/15 02:15:51;;;;;;;14.50;11.15;;;-1.00;99.90;;;;;;2064930;28;20263;-65
2021/04/15 02:16:55;;;;;;;14.43;10.68;;;-0.90;99.90;;;;;;2059482;28;20176;-65
2021/04/15 02:18:04;;;;;;;14.90;11.20;;;-0.90;99.90;;;;;;2064848;28;20232;-64
2021/04/15 02:19:10;;;;;;;14.55;10.65;;;-0.90;99.90;;;;;;2073891;28;20214;-65
2021/04/15 02:20:18;;;;;;;15.00;12.10;;;-0.80;99.90;;;;;;2072908;28;20215;-65
2021/04/15 02:21:34;;;;;;;13.77;11.23;;;-0.80;99.90;;;;;;2073730;28;20179;-65
2021/04/15 02:22:46;;;;;;;15.40;12.02;;;-0.80;99.90;;;;;;2072716;28;20171;-65
2021/04/15 02:24:00;;;;;;;18.45;11.82;;;-0.70;99.90;;;;;;2074422;28;20171;-65
2021/04/15 02:25:21;;;;;;;12.93;10.73;;;-0.70;99.90;;;;;;2072757;28;20239;-65
2021/04/15 02:26:32;;;;;;;15.52;11.82;;;-0.70;99.90;;;;;;2075527;28;20184;-65
2021/04/15 02:28:12;;;;;;;16.73;11.88;;;-0.70;99.90;;;;;;2081143;28;20236;-65
2021/04/15 02:29:22;;;;;;;13.75;10.38;;;-0.70;99.90;;;;;;2081340;28;20222;-65
2021/04/15 02:30:42;;;;;;;15.95;12.40;;;-0.60;99.90;;;;;;2081435;28;20176;-65
2021/04/15 02:32:00;;;;;;;14.88;11.20;;;-0.60;99.90;;;;;;2081306;28;20163;-65
2021/04/15 02:33:30;;;;;;;16.67;11.57;;;-0.70;99.90;;;;;;2080930;28;20172;-65
2021/04/15 02:34:38;;;;;;;18.13;12.65;;;-0.60;99.90;;;;;;2068237;28;20196;-65
2021/04/15 02:35:47;;;;;;;18.55;13.23;;;-0.60;99.90;;;;;;2080821;28;20193;-65
2021/04/15 02:36:55;;;;;;;18.20;13.18;;;-0.60;99.90;;;;;;2080978;28;20202;-65
2021/04/15 02:38:00;;;;;;;17.20;12.88;;;-0.60;99.90;;;;;;2080856;28;20199;-65
2021/04/15 02:39:35;;;;;;;18.05;12.93;;;-0.60;99.90;;;;;;2072628;28;20579;-65
2021/04/15 02:40:54;;;;;;;16.20;12.43;;;-0.60;99.90;;;;;;2073055;28;20189;-65
2021/04/15 02:41:56;;;;;;;14.80;11.95;;;-0.60;99.90;;;;;;2066753;28;20204;-64
2021/04/15 02:43:02;;;;;;;17.58;13.02;;;-0.50;99.90;;;;;;2072839;28;20189;-65
2021/04/15 02:44:10;;;;;;;16.58;12.45;;;-0.50;99.90;;;;;;2072738;28;20169;-65
2021/04/15 02:45:39;;;;;;;17.95;13.45;;;-0.50;99.90;;;;;;2073725;28;20183;-65
2021/04/15 02:46:54;;;;;;;15.05;11.70;;;-0.60;99.90;;;;;;2072838;28;20271;-65
2021/04/15 02:48:19;;;;;;;17.73;12.90;;;-0.50;99.90;;;;;;2075125;28;20179;-64
2021/04/15 02:49:25;;;;;;;16.35;12.57;;;-0.50;99.90;;;;;;2081437;28;20178;-65
2021/04/15 02:50:26;;;;;;;19.02;13.18;;;-0.60;99.90;;;;;;2081573;28;20182;-65
2021/04/15 02:51:38;;;;;;;17.27;12.98;;;-0.60;99.90;;;;;;2072272;28;20210;-65
2021/04/15 02:52:43;;;;;;;17.90;13.10;;;-0.60;99.90;;;;;;2065913;28;20212;-65
2021/04/15 02:53:55;;;;;;;17.73;13.82;;;-0.50;99.90;;;;;;2073305;28;20703;-65
2021/04/15 02:55:04;;;;;;;20.10;14.23;;;-0.60;99.90;;;;;;2072687;28;20310;-64
2021/04/15 02:56:23;;;;;;;19.42;14.00;;;-0.60;99.90;;;;;;2065580;28;20219;-65
2021/04/15 02:57:33;;;;;;;17.73;13.00;;;-0.60;99.90;;;;;;2066971;28;20239;-65
2021/04/15 02:58:51;;;;;;;17.98;13.48;;;-0.60;99.90;;;;;;2073866;28;20715;-65
2021/04/15 03:00:09;;;;;;;18.45;14.13;;;-0.70;99.90;;;;;;2072478;28;20203;-65
2021/04/15 03:01:16;;;;;;;20.73;13.27;;;-0.70;99.90;;;;;;2066636;28;20812;-64
2021/04/15 03:02:33;;;;;;;19.10;13.05;;;-0.70;99.90;;;;;;2072423;28;20684;-64
2021/04/15 03:03:36;;;;;;;20.55;14.23;;;-0.70;99.90;;;;;;2074847;28;20173;-64
2021/04/15 03:04:40;;;;;;;22.33;14.70;;;-0.80;99.90;;;;;;2072423;28;20181;-64
2021/04/15 03:05:46;;;;;;;20.38;14.80;;;-0.80;99.90;;;;;;2072847;28;20283;-64
2021/04/15 03:06:49;;;;;;;19.88;13.85;;;-0.90;99.90;;;;;;2080639;28;20232;-64
2021/04/15 03:07:54;;;;;;;19.70;14.57;;;-0.90;99.90;;;;;;2072607;28;20187;-64
2021/04/15 03:09:06;;;;;;;22.70;17.13;;;-1.00;99.90;;;;;;2072973;28;20190;-64
2021/04/15 03:10:19;;;;;;;23.77;16.40;;;-1.00;99.90;;;;;;2072462;28;20159;-64
2021/04/15 03:11:31;;;;;;;23.77;16.42;;;-1.10;99.90;;;;;;2065817;28;20176;-64
2021/04/15 03:12:40;;;;;;;22.67;15.48;;;-1.10;99.90;;;;;;2065707;28;20188;-64
2021/04/15 03:13:50;;;;;;;24.33;16.10;;;-1.20;99.90;;;;;;2073649;28;20206;-64
2021/04/15 03:15:07;;;;;;;20.42;15.05;;;-1.20;99.90;;;;;;2072416;28;20171;-64
2021/04/15 03:16:07;;;;;;;18.98;14.65;;;-1.30;99.90;;;;;;2074582;28;20589;-64
2021/04/15 03:17:12;;;;;;;22.73;15.50;;;-1.40;99.90;;;;;;2080428;28;20185;-64
2021/04/15 03:18:23;;;;;;;22.77;16.10;;;-1.40;99.90;;;;;;2072442;28;20225;-64
2021/04/15 03:19:36;;;;;;;24.38;15.80;;;-1.50;99.90;;;;;;2065743;28;20174;-65
2021/04/15 03:20:51;;;;;;;25.50;16.50;;;-1.50;99.90;;;;;;2065840;28;20170;-64
2021/04/15 03:22:06;;;;;;;26.67;17.00;;;-1.60;99.90;;;;;;2065804;28;20637;-64
2021/04/15 03:23:40;;;;;;;27.08;17.98;;;-1.70;99.90;;;;;;2074342;28;20575;-64
2021/04/15 03:24:51;;;;;;;24.85;16.52;;;-1.70;99.90;;;;;;2072356;28;20178;-63
2021/04/15 03:25:54;;;;;;;24.58;16.70;;;-1.80;99.90;;;;;;2065579;28;20617;-64
2021/04/15 03:27:10;;;;;;;26.23;18.20;;;-1.80;99.90;;;;;;2072457;28;20194;-64
2021/04/15 03:28:23;;;;;;;27.02;16.52;;;-1.80;99.90;;;;;;2072261;28;20161;-64
2021/04/15 03:29:29;;;;;;;27.77;16.75;;;-1.90;99.90;;;;;;2073975;28;20162;-64
2021/04/15 03:31:22;;;;;;;27.08;17.08;;;-1.90;99.90;;;;;;2072407;28;20186;-64
2021/04/15 03:32:41;;;;;;;26.38;16.98;;;-2.00;99.90;;;;;;2047528;28;20342;-64
2021/04/15 03:34:00;;;;;;;26.45;16.42;;;-2.10;99.90;;;;;;2071820;28;20202;-65
2021/04/15 03:35:15;;;;;;;26.90;16.15;;;-2.10;99.90;;;;;;2066678;28;20170;-64
2021/04/15 03:36:23;;;;;;;26.70;17.77;;;-2.10;99.90;;;;;;2074232;28;20178;-64
2021/04/15 03:38:12;;;;;;;29.83;18.48;;;-2.20;99.90;;;;;;2080411;28;20696;-64
2021/04/15 03:39:23;;;;;;;26.70;16.15;;;-2.20;99.90;;;;;;2080261;28;20196;-64
2021/04/15 03:40:29;;;;;;;29.85;18.02;;;-2.20;99.90;;;;;;2080565;28;20165;-64
2021/04/15 03:41:56;;;;;;;26.73;17.67;;;-2.20;99.90;;;;;;2080078;28;20264;-64
2021/04/15 03:43:05;;;;;;;27.45;17.10;;;-2.30;99.90;;;;;;2072246;28;20218;-64
2021/04/15 03:44:09;;;;;;;29.83;18.00;;;-2.30;99.90;;;;;;2073170;28;20224;-64
2021/04/15 03:45:52;;;;;;;31.40;19.55;;;-2.30;99.90;;;;;;2072200;28;20540;-64
2021/04/15 03:47:03;;;;;;;26.13;16.88;;;-2.30;99.90;;;;;;2055420;28;20194;-64
2021/04/15 03:48:09;;;;;;;27.77;17.67;;;-2.40;99.90;;;;;;2064123;28;20205;-64
2021/04/15 03:49:18;;;;;;;31.75;18.55;;;-2.40;99.90;;;;;;2073079;28;20178;-64
2021/04/15 03:50:24;;;;;;;32.25;18.85;;;-2.50;99.90;;;;;;2080342;28;20181;-64
2021/04/15 03:51:41;;;;;;;28.95;18.40;;;-2.50;99.90;;;;;;2071947;28;20546;-64
2021/04/15 03:52:57;;;;;;;32.22;19.02;;;-2.50;99.90;;;;;;2074486;28;20178;-64
2021/04/15 03:54:11;;;;;;;28.98;18.98;;;-2.50;99.90;;;;;;2080378;28;20180;-64
2021/04/15 03:55:23;;;;;;;27.48;18.58;;;-2.50;99.90;;;;;;2080329;28;20176;-64
2021/04/15 03:56:40;;;;;;;30.77;18.60;;;-2.50;99.90;;;;;;2080350;28;20185;-64
2021/04/15 03:57:42;;;;;;;31.58;18.85;;;-2.60;99.90;;;;;;2080959;28;20223;-64
2021/04/15 03:58:51;;;;;;;34.42;20.08;;;-2.60;99.90;;;;;;2072170;28;20178;-64
2021/04/15 04:00:16;;;;;;;28.65;18.50;;;-2.60;99.90;;;;;;2073325;28;20174;-64
2021/04/15 04:01:23;;;;;;;29.30;18.02;;;-2.60;99.90;;;;;;2070053;28;21546;-63
2021/04/15 04:02:32;;;;;;;32.20;19.15;;;-2.60;99.90;;;;;;2072543;28;20216;-64
2021/04/15 04:03:36;;;;;;;30.83;19.25;;;-2.60;99.90;;;;;;2072181;28;20695;-64
2021/04/15 04:04:49;;;;;;;28.58;18.15;;;-2.70;99.90;;;;;;2064383;28;20269;-64
2021/04/15 04:06:19;;;;;;;31.25;18.77;;;-2.60;99.90;;;;;;2065524;28;20285;-64
2021/04/15 04:07:26;;;;;;;30.13;18.50;;;-2.70;99.90;;;;;;2076593;28;20179;-64
2021/04/15 04:08:50;;;;;;;26.63;18.00;;;-2.70;99.90;;;;;;2072075;28;20178;-64
2021/04/15 04:10:14;;;;;;;31.63;18.80;;;-2.70;99.90;;;;;;2066938;28;20194;-65
2021/04/15 04:11:20;;;;;;;34.42;18.83;;;-2.70;99.90;;;;;;2058827;28;20193;-65
2021/04/15 04:12:29;;;;;;;32.72;17.88;;;-2.70;99.90;;;;;;2057509;28;20213;-66
2021/04/15 04:13:39;;;;;;;31.98;18.92;;;-2.70;99.90;;;;;;2081591;23;20190;-67
2021/04/15 04:14:58;;;;;;;32.65;18.73;;;-2.70;99.90;;;;;;2087230;28;20303;-67
2021/04/15 04:16:06;;;;;;;31.25;17.92;;;-2.80;99.90;;;;;;2087938;28;20530;-67
2021/04/15 04:17:15;;;;;;;32.63;19.65;;;-2.70;99.90;;;;;;2082661;28;20283;-67
2021/04/15 04:18:27;;;;;;;32.03;20.27;;;-2.70;99.90;;;;;;2074821;28;20468;-67
2021/04/15 04:19:54;;;;;;;32.63;20.13;;;-2.70;99.90;;;;;;2083858;28;20204;-67
2021/04/15 04:21:17;;;;;;;32.97;20.02;;;-2.70;99.90;;;;;;2085366;28;20198;-68
2021/04/15 04:22:37;;;;;;;34.13;19.40;;;-2.70;99.90;;;;;;2084865;28;20187;-68
2021/04/15 04:23:49;;;;;;;33.15;20.10;;;-2.70;99.90;;;;;;2081274;28;20211;-67
2021/04/15 04:25:07;;;;;;;32.00;18.90;;;-2.60;99.90;;;;;;2082177;28;20184;-67
2021/04/15 04:26:27;;;;;;;38.80;20.70;;;-2.60;99.90;;;;;;2081980;28;20216;-67
2021/04/15 04:27:33;;;;;;;36.30;20.60;;;-2.60;99.90;;;;;;2082120;28;20171;-67
2021/04/15 04:28:48;;;;;;;38.70;20.02;;;-2.60;99.90;;;;;;2081776;28;20214;-67
2021/04/15 04:29:58;;;;;;;32.58;20.38;;;-2.60;99.90;;;;;;2073580;28;20188;-67
2021/04/15 04:31:08;;;;;;;36.65;20.30;;;-2.50;99.90;;;;;;2067965;28;20168;-67
2021/04/15 04:32:16;;;;;;;31.30;19.95;;;-2.50;99.90;;;;;;2074809;28;20169;-68
2021/04/15 04:33:24;;;;;;;33.47;20.77;;;-2.50;99.90;;;;;;2074242;28;20178;-68
2021/04/15 04:34:26;;;;;;;33.90;21.00;;;-2.40;99.90;;;;;;2074113;28;20173;-67
2021/04/15 04:35:31;;;;;;;33.80;20.90;;;-2.40;99.90;;;;;;2081337;28;20565;-67
2021/04/15 04:36:35;;;;;;;41.03;23.60;;;-2.40;99.90;;;;;;2082960;28;20185;-67
2021/04/15 04:37:45;;;;;;;33.78;21.88;;;-2.30;99.90;;;;;;2083233;28;20878;-67
2021/04/15 04:38:47;;;;;;;34.88;21.77;;;-2.30;99.90;;;;;;2082795;28;20292;-67
2021/04/15 04:39:48;;;;;;;37.97;23.00;;;-2.30;99.90;;;;;;2082785;28;20251;-67
2021/04/15 04:40:54;;;;;;;34.33;21.15;;;-2.30;99.90;;;;;;2082710;28;20298;-67
2021/04/15 04:42:27;;;;;;;34.35;21.67;;;-2.30;99.90;;;;;;2075379;28;20201;-67
2021/04/15 04:43:55;;;;;;;29.38;18.85;;;-2.20;99.90;;;;;;2078999;28;20722;-67
2021/04/15 04:44:59;;;;;;;30.65;18.25;;;-2.20;99.90;;;;;;2077251;28;20219;-67
2021/04/15 04:46:13;;;;;;;31.08;20.10;;;-2.10;99.90;;;;;;2075036;28;20220;-67
2021/04/15 04:47:56;;;;;;;32.80;20.65;;;-2.10;99.90;;;;;;2076205;28;20162;-67
2021/04/15 04:49:16;;;;;;;33.13;18.90;;;-2.10;99.90;;;;;;2083212;28;20191;-67
2021/04/15 04:50:33;;;;;;;34.67;20.50;;;-2.20;99.90;;;;;;2082817;28;20184;-67
2021/04/15 04:52:08;;;;;;;30.83;19.08;;;-2.10;99.90;;;;;;2076640;28;20181;-67
2021/04/15 04:53:22;;;;;;;31.08;18.65;;;-2.10;99.90;;;;;;2078884;28;20320;-67
2021/04/15 04:54:24;;;;;;;32.22;20.00;;;-2.10;99.90;;;;;;2076451;28;20687;-67
2021/04/15 04:55:46;;;;;;;34.55;21.23;;;-2.10;99.90;;;;;;2082692;28;20831;-67
2021/04/15 04:57:14;;;;;;;31.35;19.60;;;-2.10;99.90;;;;;;2082774;28;20183;-67
2021/04/15 04:58:17;;;;;;;27.92;18.55;;;-2.00;99.90;;;;;;2061321;28;20194;-67
2021/04/15 04:59:27;;;;;;;32.60;21.00;;;-2.00;99.90;;;;;;2066823;28;20240;-67
2021/04/15 05:00:28;;;;;;;31.13;20.52;;;-2.00;99.90;;;;;;2075688;28;20216;-67
2021/04/15 05:01:30;;;;;;;35.33;21.87;;;-1.90;99.90;;;;;;2082115;28;20181;-67
2021/04/15 05:02:30;;;;;;;33.20;21.50;;;-1.90;99.90;;;;;;2082565;28;20563;-67
2021/04/15 05:03:33;;;;;;;32.77;21.00;;;-1.90;99.90;;;;;;2074107;28;20186;-67
2021/04/15 05:04:35;;;;;;;34.22;20.88;;;-1.80;99.90;;;;;;2073523;28;20186;-67
2021/04/15 05:05:36;;;;;;;37.65;22.13;;;-1.80;99.90;;;;;;2073173;28;20201;-67
2021/04/15 05:06:41;;;;;;;35.17;22.27;;;-1.80;99.90;;;;;;2081442;28;20236;-67
2021/04/15 05:07:44;;;;;;;32.85;21.52;;;-1.70;99.90;;;;;;2081315;28;20550;-67
2021/04/15 05:09:19;;;;;;;34.72;21.50;;;-1.70;99.90;;;;;;2073419;28;20186;-67
2021/04/15 05:10:24;;;;;;;30.67;18.95;;;-1.60;99.90;;;;;;2085696;28;20184;-67
2021/04/15 05:11:35;;;;;;;35.13;21.98;;;-1.60;99.90;;;;;;2081180;28;20272;-67
2021/04/15 05:12:36;;;;;;;34.83;21.27;;;-1.60;99.90;;;;;;2074423;28;20181;-67
2021/04/15 05:13:38;;;;;;;34.42;22.52;;;-1.60;99.90;;;;;;2072930;28;20197;-67
2021/04/15 05:14:39;;;;;;;33.70;22.08;;;-1.60;99.90;;;;;;2081392;28;20216;-67
2021/04/15 05:15:41;;;;;;;30.13;20.35;;;-1.50;99.90;;;;;;2089467;28;20180;-67
2021/04/15 05:16:54;;;;;;;32.88;21.55;;;-1.50;99.90;;;;;;2081119;28;20181;-67
2021/04/15 05:17:55;;;;;;;35.15;22.35;;;-1.50;99.90;;;;;;2081349;28;20173;-67
2021/04/15 05:18:56;;;;;;;29.83;19.87;;;-1.40;99.90;;;;;;2081264;28;20221;-67
2021/04/15 05:20:02;;;;;;;30.75;21.38;;;-1.40;99.90;;;;;;2081294;28;20181;-67
2021/04/15 05:21:19;;;;;;;31.17;20.80;;;-1.40;99.90;;;;;;2088932;28;20621;-67
2021/04/15 05:22:45;;;;;;;31.27;20.05;;;-1.40;99.90;;;;;;2081101;28;20263;-67
2021/04/15 05:24:32;;;;;;;29.60;19.25;;;-1.40;99.90;;;;;;2076473;28;20201;-67
2021/04/15 05:26:14;;;;;;;32.00;20.08;;;-1.40;99.90;;;;;;2078904;28;20179;-67
2021/04/15 05:27:20;;;;;;;32.00;18.42;;;-1.40;99.90;;;;;;2081718;28;20173;-67
2021/04/15 05:28:21;;;;;;;29.05;19.20;;;-1.50;99.90;;;;;;2081058;28;20196;-67
2021/04/15 05:29:30;;;;;;;35.97;20.33;;;-1.50;99.90;;;;;;2081184;28;20178;-67
2021/04/15 05:30:47;;;;;;;33.30;20.90;;;-1.50;99.90;;;;;;2081103;28;20193;-67
2021/04/15 05:31:53;;;;;;;32.65;20.67;;;-1.50;99.90;;;;;;2074835;28;20179;-67
2021/04/15 05:33:00;;;;;;;31.25;20.00;;;-1.50;99.90;;;;;;2073484;28;20187;-67
2021/04/15 05:34:06;;;;;;;32.75;19.65;;;-1.50;99.90;;;;;;2082114;28;20287;-67
2021/04/15 05:35:10;;;;;;;30.95;19.85;;;-1.50;99.90;;;;;;2080993;28;20174;-67
2021/04/15 05:36:22;;;;;;;35.63;21.05;;;-1.50;99.90;;;;;;2073278;28;20178;-67
2021/04/15 05:37:27;;;;;;;31.17;19.65;;;-1.50;99.90;;;;;;2074332;28;20170;-68
2021/04/15 05:38:32;;;;;;;31.67;20.63;;;-1.60;99.90;;;;;;2073595;28;20166;-68
2021/04/15 05:39:35;;;;;;;30.52;19.15;;;-1.60;99.90;;;;;;2081484;28;20769;-67
2021/04/15 05:40:43;;;;;;;28.92;19.42;;;-1.60;99.90;;;;;;2083339;28;20174;-68
2021/04/15 05:42:06;;;;;;;29.92;19.77;;;-1.60;99.90;;;;;;2067847;28;20709;-68
2021/04/15 05:43:33;;;;;;;29.98;19.52;;;-1.60;99.90;;;;;;2070948;28;20256;-68
2021/04/15 05:44:46;;;;;;;29.45;19.00;;;-1.60;99.90;;;;;;2076492;28;20175;-67
2021/04/15 05:45:50;;;;;;;35.05;20.20;;;-1.60;99.90;;;;;;2082507;28;20213;-68
2021/04/15 05:46:53;;;;;;;28.63;20.52;;;-1.60;99.90;;;;;;2080546;28;20590;-68
2021/04/15 05:48:07;;;;;;;34.33;20.85;;;-1.60;99.90;;;;;;2080337;28;20192;-67
2021/04/15 05:49:14;;;;;;;33.78;19.75;;;-1.60;99.90;;;;;;2081107;28;20223;-67
2021/04/15 05:50:48;;;;;;;33.00;20.88;;;-1.60;99.90;;;;;;2082101;28;20862;-68
2021/04/15 05:52:10;;;;;;;33.60;20.45;;;-1.60;99.90;;;;;;2069872;28;20255;-68
2021/04/15 05:53:31;;;;;;;34.35;19.70;;;-1.60;99.90;;;;;;2076019;28;20195;-68
2021/04/15 05:54:34;;;;;;;31.88;19.95;;;-1.60;99.90;;;;;;2080280;28;20176;-66
2021/04/15 05:55:43;;;;;;;36.45;20.70;;;-1.60;99.90;;;;;;2072399;28;20865;-69
2021/04/15 05:56:59;;;;;;;33.10;20.63;;;-1.60;99.90;;;;;;2071455;28;20181;-68
2021/04/15 05:58:07;;;;;;;37.63;22.42;;;-1.60;99.90;;;;;;2077093;28;20787;-66
2021/04/15 05:59:33;;;;;;;34.35;20.80;;;-1.60;99.90;;;;;;2071015;28;20610;-63
2021/04/15 06:00:48;;;;;;;29.75;18.27;;;-1.50;99.90;;;;;;2070407;28;20362;-65
2021/04/15 06:02:27;;;;;;;31.55;19.25;;;-1.50;99.90;;;;;;2056491;28;20187;-65
2021/04/15 06:04:30;;;;;;;29.63;18.15;;;-1.50;99.90;;;;;;2070056;28;20173;-66
2021/04/15 06:05:42;;;;;;;27.73;17.60;;;-1.50;99.90;;;;;;2077492;28;20663;-65